sensor_id;sensor_type;location;lat;lon;timestamp;P1;P2;P0
76043;PMS7003;64740;34.694;33.088;2024-02-28T01:54:55;11.4;10;5.9
76043;PMS7003;64740;34.694;33.088;2024-02-28T01:59:26;12.4;10.6;6.5
76043;PMS7003;64740;34.694;33.088;2024-02-28T02:04:33;8.8;7.7;4.8
76043;PMS7003;64740;34.694;33.088;2024-02-28T02:09:26;8.5;7.2;4.4
76043;PMS7003;64740;34.694;33.088;2024-02-28T02:14:33;7.6;6.7;4
76043;PMS7003;64740;34.694;33.088;2024-02-28T02:19:25;8.8;6.7;4
76043;PMS7003;64740;34.694;33.088;2024-02-28T02:24:31;9.1;6.9;4.1
76043;PMS7003;64740;34.694;33.088;2024-02-28T02:29:49;8.6;6.8;4.3
76043;PMS7003;64740;34.694;33.088;2024-02-28T02:34:39;7.9;6.2;3.9
76043;PMS7003;64740;34.694;33.088;2024-02-28T02:39:42;7.8;6.9;4.1
76043;PMS7003;64740;34.694;33.088;2024-02-28T02:44:55;7.7;6.6;4.1
76043;PMS7003;64740;34.694;33.088;2024-02-28T02:49:48;7.1;6.1;3.6
76043;PMS7003;64740;34.694;33.088;2024-02-28T02:54:39;6.7;6.1;3.9
76043;PMS7003;64740;34.694;33.088;2024-02-28T02:59:28;7.6;5.9;3.9
76043;PMS7003;64740;34.694;33.088;2024-02-28T03:04:28;7.2;6.3;3.6
76043;PMS7003;64740;34.694;33.088;2024-02-28T03:09:43;7.1;6.3;3.9
76043;PMS7003;64740;34.694;33.088;2024-02-28T03:14:46;7.7;6;3.7
76043;PMS7003;64740;34.694;33.088;2024-02-28T03:19:35;7.5;5.6;3.5
76043;PMS7003;64740;34.694;33.088;2024-02-28T03:25:04;6.6;5.9;3.7
76043;PMS7003;64740;34.694;33.088;2024-02-28T03:29:43;6.6;5.9;3.7
76043;PMS7003;64740;34.694;33.088;2024-02-28T03:34:35;7.6;6;3.7
76043;PMS7003;64740;34.694;33.088;2024-02-28T03:39:33;6.6;6;3.5
76043;PMS7003;64740;34.694;33.088;2024-02-28T03:44:33;7.5;5.8;3.3
76043;PMS7003;64740;34.694;33.088;2024-02-28T03:49:33;7.3;5.7;3.6
76043;PMS7003;64740;34.694;33.088;2024-02-28T03:54:26;7.7;6.2;4
76043;PMS7003;64740;34.694;33.088;2024-02-28T03:59:50;5.8;4.5;2.5
76043;PMS7003;64740;34.694;33.088;2024-02-28T04:04:52;6.2;4.9;2.5
76043;PMS7003;64740;34.694;33.088;2024-02-28T04:09:42;7.4;6.2;3.8
76043;PMS7003;64740;34.694;33.088;2024-02-28T04:15:08;8;6.8;4.1
76043;PMS7003;64740;34.694;33.088;2024-02-28T04:19:58;8;6.8;4.1
76043;PMS7003;64740;34.694;33.088;2024-02-28T04:24:52;10;7.2;4.6
76043;PMS7003;64740;34.694;33.088;2024-02-28T04:29:58;9.7;8;4.9
76043;PMS7003;64740;34.694;33.088;2024-02-28T04:34:52;11.1;8.7;5
76043;PMS7003;64740;34.694;33.088;2024-02-28T04:39:44;11.5;9.3;5.4
76043;PMS7003;64740;34.694;33.088;2024-02-28T04:44:34;10.1;7.7;4.8
76043;PMS7003;64740;34.694;33.088;2024-02-28T04:49:46;8.9;7.3;4.2
76043;PMS7003;64740;34.694;33.088;2024-02-28T04:54:28;8.2;7.1;4.1
76043;PMS7003;64740;34.694;33.088;2024-02-28T05:00:04;6.4;5.5;3.2
76043;PMS7003;64740;34.694;33.088;2024-02-28T05:04:46;6.4;5.5;3.2
76043;PMS7003;64740;34.694;33.088;2024-02-28T05:09:56;7.3;5.4;3.6
76043;PMS7003;64740;34.694;33.088;2024-02-28T05:14:34;5.5;4.9;2.7
76043;PMS7003;64740;34.694;33.088;2024-02-28T05:19:26;8.2;6.6;3.9
76043;PMS7003;64740;34.694;33.088;2024-02-28T05:24:26;9;7.6;4.6
76043;PMS7003;64740;34.694;33.088;2024-02-28T05:29:26;9.9;7.7;4.6
76043;PMS7003;64740;34.694;33.088;2024-02-28T05:34:26;7.8;6.6;3.9
76043;PMS7003;64740;34.694;33.088;2024-02-28T05:40:06;9.6;7.2;4.6
76043;PMS7003;64740;34.694;33.088;2024-02-28T05:44:56;9.6;7.2;4.6
76043;PMS7003;64740;34.694;33.088;2024-02-28T05:49:58;9.7;7.6;4.9
76043;PMS7003;64740;34.694;33.088;2024-02-28T05:55:04;9.7;8.5;5.2
76043;PMS7003;64740;34.694;33.088;2024-02-28T05:59:42;9.7;8.5;5.2
76043;PMS7003;64740;34.694;33.088;2024-02-28T06:05:07;9.6;8.1;5.4
76043;PMS7003;64740;34.694;33.088;2024-02-28T06:10:06;6.8;5.7;3.4
76043;PMS7003;64740;34.694;33.088;2024-02-28T06:14:56;6.8;5.7;3.4
76043;PMS7003;64740;34.694;33.088;2024-02-28T06:19:42;6.4;5.2;3.2
76043;PMS7003;64740;34.694;33.088;2024-02-28T06:24:28;6.4;5.2;3
76043;PMS7003;64740;34.694;33.088;2024-02-28T06:29:56;5.5;4.4;2.7
76043;PMS7003;64740;34.694;33.088;2024-02-28T06:35:06;4.9;4.3;2.5
76043;PMS7003;64740;34.694;33.088;2024-02-28T06:39:34;4.9;4.3;2.5
76043;PMS7003;64740;34.694;33.088;2024-02-28T06:45:06;5.6;4.1;2.7
76043;PMS7003;64740;34.694;33.088;2024-02-28T06:49:26;5.6;4.1;2.7
76043;PMS7003;64740;34.694;33.088;2024-02-28T06:54:26;5.3;3.9;2.3
76043;PMS7003;64740;34.694;33.088;2024-02-28T06:59:46;4.7;3.6;2.1
76043;PMS7003;64740;34.694;33.088;2024-02-28T07:04:34;5.4;4.5;2.5
76043;PMS7003;64740;34.694;33.088;2024-02-28T07:09:46;5;4.5;2.6
76043;PMS7003;64740;34.694;33.088;2024-02-28T07:14:34;5.8;4.6;2.7
76043;PMS7003;64740;34.694;33.088;2024-02-28T07:19:28;6.2;4.7;2.8
76043;PMS7003;64740;34.694;33.088;2024-02-28T07:24:42;7.5;6.2;4.1
76043;PMS7003;64740;34.694;33.088;2024-02-28T07:30:06;7.7;6;3.5
76043;PMS7003;64740;34.694;33.088;2024-02-28T07:34:34;7.7;6;3.5
76043;PMS7003;64740;34.694;33.088;2024-02-28T07:39:52;8;7.4;4.2
76043;PMS7003;64740;34.694;33.088;2024-02-28T07:44:52;7;5.7;3.7
76043;PMS7003;64740;34.694;33.088;2024-02-28T07:49:48;9.6;7.2;4.7
76043;PMS7003;64740;34.694;33.088;2024-02-28T07:54:26;9.1;7.7;4.8
76043;PMS7003;64740;34.694;33.088;2024-02-28T07:59:44;7.8;6.6;3.8
76043;PMS7003;64740;34.694;33.088;2024-02-28T08:04:56;6.4;4.5;2.7
76043;PMS7003;64740;34.694;33.088;2024-02-28T08:10:06;6.3;4.4;2.6
76043;PMS7003;64740;34.694;33.088;2024-02-28T08:14:46;6.3;4.4;2.6
76043;PMS7003;64740;34.694;33.088;2024-02-28T08:20:06;4.8;4;2.4
76043;PMS7003;64740;34.694;33.088;2024-02-28T08:25:06;5.5;4.1;2.3
76043;PMS7003;64740;34.694;33.088;2024-02-28T08:29:56;5.5;4.1;2.3
76043;PMS7003;64740;34.694;33.088;2024-02-28T08:34:38;6.1;4.7;2.9
76043;PMS7003;64740;34.694;33.088;2024-02-28T08:39:34;6.2;5;3
76043;PMS7003;64740;34.694;33.088;2024-02-28T08:44:34;6.7;5.1;3
76043;PMS7003;64740;34.694;33.088;2024-02-28T08:49:42;6.3;4.8;3.1
76043;PMS7003;64740;34.694;33.088;2024-02-28T08:54:34;6.7;5.2;3.1
76043;PMS7003;64740;34.694;33.088;2024-02-28T08:59:42;7.8;6;4.1
76043;PMS7003;64740;34.694;33.088;2024-02-28T09:04:52;9;6.8;3.9
76043;PMS7003;64740;34.694;33.088;2024-02-28T09:09:42;8.9;7.2;3.7
76043;PMS7003;64740;34.694;33.088;2024-02-28T09:15:06;8.3;6.6;4.1
76043;PMS7003;64740;34.694;33.088;2024-02-28T09:19:36;8.3;6.6;4.1
76043;PMS7003;64740;34.694;33.088;2024-02-28T09:24:52;8.3;6.4;3.6
76043;PMS7003;64740;34.694;33.088;2024-02-28T09:29:58;7.3;6.2;3.8
76043;PMS7003;64740;34.694;33.088;2024-02-28T09:34:52;8.4;7;4.1
76043;PMS7003;64740;34.694;33.088;2024-02-28T09:39:56;7.9;6.8;4.1
76043;PMS7003;64740;34.694;33.088;2024-02-28T09:44:34;9;7;4.3
76043;PMS7003;64740;34.694;33.088;2024-02-28T09:49:26;8.9;7.3;4
76043;PMS7003;64740;34.694;33.088;2024-02-28T09:54:56;7.8;6.9;4.2
76043;PMS7003;64740;34.694;33.088;2024-02-28T10:00:06;9.6;6.7;4.4
76043;PMS7003;64740;34.694;33.088;2024-02-28T10:04:38;9.6;6.7;4.4
76043;PMS7003;64740;34.694;33.088;2024-02-28T10:09:48;8.9;6.8;4.1
76043;PMS7003;64740;34.694;33.088;2024-02-28T10:14:42;9.1;7.5;4.2
76043;PMS7003;64740;34.694;33.088;2024-02-28T10:19:34;8.7;6.8;4.1
76043;PMS7003;64740;34.694;33.088;2024-02-28T10:24:46;8.7;6.7;4
76043;PMS7003;64740;34.694;33.088;2024-02-28T10:29:34;7.9;6.5;3.9
76043;PMS7003;64740;34.694;33.088;2024-02-28T10:34:46;8.8;6.6;3.6
76043;PMS7003;64740;34.694;33.088;2024-02-28T10:40:06;7.1;5.5;2.9
76043;PMS7003;64740;34.694;33.088;2024-02-28T10:44:57;7.1;5.5;2.9
76043;PMS7003;64740;34.694;33.088;2024-02-28T10:49:52;7.5;5.8;3.1
76043;PMS7003;64740;34.694;33.088;2024-02-28T10:55:06;7;5.4;3.1
76043;PMS7003;64740;34.694;33.088;2024-02-28T10:59:42;7;5.4;3.1
76043;PMS7003;64740;34.694;33.088;2024-02-28T11:05:06;7.4;5.3;3
76043;PMS7003;64740;34.694;33.088;2024-02-28T11:10:06;13.2;9.3;4.6
76043;PMS7003;64740;34.694;33.088;2024-02-28T11:14:57;13.2;9.3;4.6
76043;PMS7003;64740;34.694;33.088;2024-02-28T11:19:42;6.6;5.2;2.7
76043;PMS7003;64740;34.694;33.088;2024-02-28T11:24:44;6.3;5.2;3.1
76043;PMS7003;64740;34.694;33.088;2024-02-28T11:29:40;6.7;5.2;3.1
76043;PMS7003;64740;34.694;33.088;2024-02-28T11:35:06;7.2;5.7;3.1
76043;PMS7003;64740;34.694;33.088;2024-02-28T11:39:46;7.2;5.7;3.1
76043;PMS7003;64740;34.694;33.088;2024-02-28T11:45:09;6.3;4.9;2.5
76043;PMS7003;64740;34.694;33.088;2024-02-28T11:49:57;6.3;4.9;2.5
76043;PMS7003;64740;34.694;33.088;2024-02-28T11:55:04;7.2;5.6;3.1
76043;PMS7003;64740;34.694;33.088;2024-02-28T11:59:34;7.2;5.6;3.1
76043;PMS7003;64740;34.694;33.088;2024-02-28T12:04:35;9;6.8;3.8
76043;PMS7003;64740;34.694;33.088;2024-02-28T12:09:56;7.1;5.2;2.8
76043;PMS7003;64740;34.694;33.088;2024-02-28T12:14:26;9.4;6.7;3.5
76043;PMS7003;64740;34.694;33.088;2024-02-28T12:19:56;6.7;5.2;2.7
76043;PMS7003;64740;34.694;33.088;2024-02-28T12:24:42;7.7;5.9;3.5
76043;PMS7003;64740;34.694;33.088;2024-02-28T12:29:20;7.8;6.4;3.3
76043;PMS7003;64740;34.694;33.088;2024-02-28T12:34:26;6.9;5.4;3
76043;PMS7003;64740;34.694;33.088;2024-02-28T12:39:54;7.7;6.1;3.5
76043;PMS7003;64740;34.694;33.088;2024-02-28T12:45:06;7.7;6;3.2
76043;PMS7003;64740;34.694;33.088;2024-02-28T12:49:28;7.7;6;3.2
76043;PMS7003;64740;34.694;33.088;2024-02-28T12:55:06;6.7;5.4;3
76043;PMS7003;64740;34.694;33.088;2024-02-28T12:59:52;6.7;5.4;3
76043;PMS7003;64740;34.694;33.088;2024-02-28T13:04:56;6.6;5.2;3.1
76043;PMS7003;64740;34.694;33.088;2024-02-28T13:10:06;6.5;4.5;2.5
76043;PMS7003;64740;34.694;33.088;2024-02-28T13:14:26;6.5;4.5;2.5
76043;PMS7003;64740;34.694;33.088;2024-02-28T13:20:06;8.1;6.7;3.5
76043;PMS7003;64740;34.694;33.088;2024-02-28T13:24:46;8.1;6.7;3.5
76043;PMS7003;64740;34.694;33.088;2024-02-28T13:29:34;8;6.2;3.1
76043;PMS7003;64740;34.694;33.088;2024-02-28T13:34:34;6.8;6.3;3.5
76043;PMS7003;64740;34.694;33.088;2024-02-28T13:39:26;6.5;5.8;3.2
76043;PMS7003;64740;34.694;33.088;2024-02-28T13:44:38;6.2;5.3;3.1
76043;PMS7003;64740;34.694;33.088;2024-02-28T13:49:34;7.6;6.1;3.2
76043;PMS7003;64740;34.694;33.088;2024-02-28T13:54:56;6.3;5.2;2.9
76043;PMS7003;64740;34.694;33.088;2024-02-28T13:59:34;6.8;5.4;3.3
76043;PMS7003;64740;34.694;33.088;2024-02-28T14:05:06;7.8;6.3;3.6
76043;PMS7003;64740;34.694;33.088;2024-02-28T14:09:52;7.8;6.3;3.6
76043;PMS7003;64740;34.694;33.088;2024-02-28T14:15:06;7.5;5.9;3.5
76043;PMS7003;64740;34.694;33.088;2024-02-28T14:19:34;7.5;5.9;3.5
76043;PMS7003;64740;34.694;33.088;2024-02-28T14:24:44;6;5.3;3.2
76043;PMS7003;64740;34.694;33.088;2024-02-28T14:29:34;7.7;5.9;3.3
76043;PMS7003;64740;34.694;33.088;2024-02-28T14:34:42;6.8;5.7;3.6
76043;PMS7003;64740;34.694;33.088;2024-02-28T14:40:04;6.7;5.7;3.3
76043;PMS7003;64740;34.694;33.088;2024-02-28T14:44:56;6.7;5.7;3.3
76043;PMS7003;64740;34.694;33.088;2024-02-28T14:49:38;7.8;6.1;3.4
76043;PMS7003;64740;34.694;33.088;2024-02-28T14:54:58;7.7;6.3;3.4
76043;PMS7003;64740;34.694;33.088;2024-02-28T15:00:06;6.4;5.4;3.2
76043;PMS7003;64740;34.694;33.088;2024-02-28T15:04:48;6.4;5.4;3.2
76043;PMS7003;64740;34.694;33.088;2024-02-28T15:09:26;6.4;4.8;2.9
76043;PMS7003;64740;34.694;33.088;2024-02-28T15:14:34;6.2;4.8;2.9
76043;PMS7003;64740;34.694;33.088;2024-02-28T15:19:26;6.7;5.1;3.2
76043;PMS7003;64740;34.694;33.088;2024-02-28T15:24:34;8.1;6;3.6
76043;PMS7003;64740;34.694;33.088;2024-02-28T15:29:26;6.3;5.4;3.2
76043;PMS7003;64740;34.694;33.088;2024-02-28T15:34:42;6.9;6;3.6
76043;PMS7003;64740;34.694;33.088;2024-02-28T15:39:44;6.9;5.1;3
76043;PMS7003;64740;34.694;33.088;2024-02-28T15:44:34;7.1;5.8;3.5
76043;PMS7003;64740;34.694;33.088;2024-02-28T15:50:06;7.7;6.1;3.6
76043;PMS7003;64740;34.694;33.088;2024-02-28T15:54:56;7.7;6.1;3.6
76043;PMS7003;64740;34.694;33.088;2024-02-28T15:59:52;8.8;7.2;4.1
76043;PMS7003;64740;34.694;33.088;2024-02-28T16:04:34;9;7.2;4.2
76043;PMS7003;64740;34.694;33.088;2024-02-28T16:09:42;7.2;6.3;3.6
76043;PMS7003;64740;34.694;33.088;2024-02-28T16:14:56;11.1;9.1;5.6
76043;PMS7003;64740;34.694;33.088;2024-02-28T16:19:42;11.3;9.3;5.7
76043;PMS7003;64740;34.694;33.088;2024-02-28T16:24:38;11.8;8.6;5.6
76043;PMS7003;64740;34.694;33.088;2024-02-28T16:29:40;11.6;9.1;5.5
76043;PMS7003;64740;34.694;33.088;2024-02-28T16:35:06;11;10;6.1
76043;PMS7003;64740;34.694;33.088;2024-02-28T16:39:46;11;10;6.1
76043;PMS7003;64740;34.694;33.088;2024-02-28T16:44:48;11.7;9.5;6.2
76043;PMS7003;64740;34.694;33.088;2024-02-28T16:49:34;13.9;10.9;7.1
76043;PMS7003;64740;34.694;33.088;2024-02-28T16:54:26;13.7;10.3;6.6
76043;PMS7003;64740;34.694;33.088;2024-02-28T16:59:42;11.6;9.6;6
76043;PMS7003;64740;34.694;33.088;2024-02-28T17:04:42;12.1;9.5;5.8
76043;PMS7003;64740;34.694;33.088;2024-02-28T17:19:42;12.7;11;6.8
76043;PMS7003;64740;34.694;33.088;2024-02-28T17:24:58;15.9;13.2;8.4
76043;PMS7003;64740;34.694;33.088;2024-02-28T17:29:56;16.5;13.6;8.6
76043;PMS7003;64740;34.694;33.088;2024-02-28T17:34:52;12.5;11;7
76043;PMS7003;64740;34.694;33.088;2024-02-28T17:39:34;12.6;10.7;6.5
76043;PMS7003;64740;34.694;33.088;2024-02-28T17:44:44;14.1;11.1;7
76043;PMS7003;64740;34.694;33.088;2024-02-28T17:49:54;14.2;11.7;7.5
76043;PMS7003;64740;34.694;33.088;2024-02-28T17:54:40;14;11.6;7.6
76043;PMS7003;64740;34.694;33.088;2024-02-28T17:59:46;13.3;10.6;6.7
76043;PMS7003;64740;34.694;33.088;2024-02-28T18:04:56;14.7;11.9;7.9
76043;PMS7003;64740;34.694;33.088;2024-02-28T18:10:05;14.5;11.9;7.2
76043;PMS7003;64740;34.694;33.088;2024-02-28T18:14:46;14.5;11.9;7.2
76043;PMS7003;64740;34.694;33.088;2024-02-28T18:19:37;15.1;12.4;8.1
76043;PMS7003;64740;34.694;33.088;2024-02-28T18:24:26;15.1;12.6;7.9
76043;PMS7003;64740;34.694;33.088;2024-02-28T18:29:48;12;10.5;7.3
76043;PMS7003;64740;34.694;33.088;2024-02-28T18:34:34;11.1;9.2;5.4
76043;PMS7003;64740;34.694;33.088;2024-02-28T18:39:44;13.2;10.9;7.2
76043;PMS7003;64740;34.694;33.088;2024-02-28T18:44:46;11.6;9.6;6.2
76043;PMS7003;64740;34.694;33.088;2024-02-28T18:50:04;11.8;10.1;6.4
76043;PMS7003;64740;34.694;33.088;2024-02-28T18:54:56;11.8;10.1;6.4
76043;PMS7003;64740;34.694;33.088;2024-02-28T19:00:04;13.5;11.1;7
76043;PMS7003;64740;34.694;33.088;2024-02-28T19:05:04;14.8;11.6;7.2
76043;PMS7003;64740;34.694;33.088;2024-02-28T19:09:48;14.8;11.6;7.2
76043;PMS7003;64740;34.694;33.088;2024-02-28T19:15:04;17.7;15.6;9.5
76043;PMS7003;64740;34.694;33.088;2024-02-28T19:20:04;17.7;14.6;9
76043;PMS7003;64740;34.694;33.088;2024-02-28T19:24:54;17.7;14.6;9
76043;PMS7003;64740;34.694;33.088;2024-02-28T19:29:26;19.3;16;10.5
76043;PMS7003;64740;34.694;33.088;2024-02-28T19:34:28;19.2;16.2;10.2
76043;PMS7003;64740;34.694;33.088;2024-02-28T19:39:56;17.7;14.2;9.4
76043;PMS7003;64740;34.694;33.088;2024-02-28T19:45:04;14.5;12;7.7
76043;PMS7003;64740;34.694;33.088;2024-02-28T19:49:46;14.5;12;7.7
76043;PMS7003;64740;34.694;33.088;2024-02-28T19:55:04;15.5;12.8;8.1
76043;PMS7003;64740;34.694;33.088;2024-02-28T19:59:26;15.5;12.8;8.1
76043;PMS7003;64740;34.694;33.088;2024-02-28T20:04:26;14.2;12.2;7.7
76043;PMS7003;64740;34.694;33.088;2024-02-28T20:09:38;13.5;11.7;7.6
76043;PMS7003;64740;34.694;33.088;2024-02-28T20:14:26;14.4;12.4;7.6
76043;PMS7003;64740;34.694;33.088;2024-02-28T20:19:35;13.5;11.9;7.7
76043;PMS7003;64740;34.694;33.088;2024-02-28T20:24:34;13;11.6;7.3
76043;PMS7003;64740;34.694;33.088;2024-02-28T20:29:56;12.1;10.1;6.7
76043;PMS7003;64740;34.694;33.088;2024-02-28T20:34:42;12.2;10.5;6.9
76043;PMS7003;64740;34.694;33.088;2024-02-28T20:40:05;12.5;10.1;6.6
76043;PMS7003;64740;34.694;33.088;2024-02-28T20:44:42;12.5;10.1;6.6
76043;PMS7003;64740;34.694;33.088;2024-02-28T20:50:04;11;9.9;6.5
76043;PMS7003;64740;34.694;33.088;2024-02-28T20:54:40;11;9.9;6.5
76043;PMS7003;64740;34.694;33.088;2024-02-28T20:59:54;11.4;10.3;6.4
76043;PMS7003;64740;34.694;33.088;2024-02-28T21:04:40;11.9;9.9;6.1
76043;PMS7003;64740;34.694;33.088;2024-02-28T21:09:50;10.8;9;5.9
76043;PMS7003;64740;34.694;33.088;2024-02-28T21:15:04;10.3;8.6;5.4
76043;PMS7003;64740;34.694;33.088;2024-02-28T21:19:54;10.3;8.6;5.4
76043;PMS7003;64740;34.694;33.088;2024-02-28T21:24:38;9.7;8.6;5.7
76043;PMS7003;64740;34.694;33.088;2024-02-28T21:30:04;10.2;8.8;6
76043;PMS7003;64740;34.694;33.088;2024-02-28T21:34:46;10.2;8.8;6
76043;PMS7003;64740;34.694;33.088;2024-02-28T21:39:32;10.3;8.4;5.2
76043;PMS7003;64740;34.694;33.088;2024-02-28T21:44:26;11;8.9;5.2
76043;PMS7003;64740;34.694;33.088;2024-02-28T21:49:48;10.7;9.3;5.6
76043;PMS7003;64740;34.694;33.088;2024-02-28T21:54:26;10.7;8.9;5.7
76043;PMS7003;64740;34.694;33.088;2024-02-28T21:59:26;10.3;9.3;5.9
76043;PMS7003;64740;34.694;33.088;2024-02-28T22:04:56;10.3;8.6;5.4
76043;PMS7003;64740;34.694;33.088;2024-02-28T22:09:34;8.8;6.9;4.1
76043;PMS7003;64740;34.694;33.088;2024-02-28T22:14:56;9.7;8.4;5.7
76043;PMS7003;64740;34.694;33.088;2024-02-28T22:19:26;9.9;8.2;4.9
76043;PMS7003;64740;34.694;33.088;2024-02-28T22:25:04;9.3;7.1;4
76043;PMS7003;64740;34.694;33.088;2024-02-28T22:29:40;9.3;7.1;4
76043;PMS7003;64740;34.694;33.088;2024-02-28T22:34:54;9.8;7.7;4.9
76043;PMS7003;64740;34.694;33.088;2024-02-28T22:40:05;8.8;7.6;4.8
76043;PMS7003;64740;34.694;33.088;2024-02-28T22:44:50;8.8;7.6;4.8
76043;PMS7003;64740;34.694;33.088;2024-02-28T22:50:05;9;7.9;5
76043;PMS7003;64740;34.694;33.088;2024-02-28T22:54:46;9;7.9;5
76043;PMS7003;64740;34.694;33.088;2024-02-28T22:59:46;9;7.3;4.8
76043;PMS7003;64740;34.694;33.088;2024-02-28T23:05:04;10.1;8.1;5.2
76043;PMS7003;64740;34.694;33.088;2024-02-28T23:10:04;9.4;7.9;5
76043;PMS7003;64740;34.694;33.088;2024-02-28T23:14:56;9.4;7.9;5
76043;PMS7003;64740;34.694;33.088;2024-02-28T23:19:46;8.2;7.4;4.6
76043;PMS7003;64740;34.694;33.088;2024-02-28T23:24:42;8.8;7.2;4.4
76043;PMS7003;64740;34.694;33.088;2024-02-28T23:29:34;8.7;7.5;4.8
76043;PMS7003;64740;34.694;33.088;2024-02-28T23:34:48;8.5;6.9;4.8
76043;PMS7003;64740;34.694;33.088;2024-02-28T23:39:35;8.2;6.9;4.5
76043;PMS7003;64740;34.694;33.088;2024-02-28T23:44:42;9.6;7.5;4.6
76043;PMS7003;64740;34.694;33.088;2024-02-28T23:49:50;8.6;6.9;4.3
76043;PMS7003;64740;34.694;33.088;2024-02-28T23:54:42;7.3;6.5;4.3
76043;PMS7003;64740;34.694;33.088;2024-02-28T23:59:56;8.6;7;4.7
